sensor_id;sensor_type;location;lat;lon;timestamp;pressure;altitude;pressure_sealevel;temperature;humidity
73624;BME280;61921;53.226;-1.296;2023-04-03T00:02:10;102118.72;;;3.64;82.80
73624;BME280;61921;53.226;-1.296;2023-04-03T00:04:36;102116.27;;;3.76;82.43
73624;BME280;61921;53.226;-1.296;2023-04-03T00:07:01;102113.24;;;3.66;82.90
73624;BME280;61921;53.226;-1.296;2023-04-03T00:09:28;102115.34;;;3.55;83.17
73624;BME280;61921;53.226;-1.296;2023-04-03T00:11:53;102117.47;;;3.31;84.37
73624;BME280;61921;53.226;-1.296;2023-04-03T00:14:19;102119.64;;;3.41;84.02
73624;BME280;61921;53.226;-1.296;2023-04-03T00:16:44;102117.44;;;3.46;84.15
73624;BME280;61921;53.226;-1.296;2023-04-03T00:19:10;102116.38;;;3.33;84.89
73624;BME280;61921;53.226;-1.296;2023-04-03T00:21:35;102113.97;;;3.56;83.77
73624;BME280;61921;53.226;-1.296;2023-04-03T00:24:01;102111.90;;;3.60;82.70
73624;BME280;61921;53.226;-1.296;2023-04-03T00:26:27;102111.19;;;3.60;82.27
73624;BME280;61921;53.226;-1.296;2023-04-03T01:02:51;102123.60;;;2.96;83.67
73624;BME280;61921;53.226;-1.296;2023-04-03T01:05:17;102119.48;;;2.72;85.49
73624;BME280;61921;53.226;-1.296;2023-04-03T01:07:41;102122.06;;;2.90;84.71
73624;BME280;61921;53.226;-1.296;2023-04-03T01:10:10;102124.61;;;2.90;83.91
73624;BME280;61921;53.226;-1.296;2023-04-03T01:12:34;102121.65;;;2.69;84.87
73624;BME280;61921;53.226;-1.296;2023-04-03T01:14:59;102117.83;;;2.50;87.03
73624;BME280;61921;53.226;-1.296;2023-04-03T01:17:28;102118.93;;;2.76;85.51
73624;BME280;61921;53.226;-1.296;2023-04-03T01:19:56;102120.31;;;2.78;84.38
73624;BME280;61921;53.226;-1.296;2023-04-03T01:22:19;102120.55;;;2.79;84.29
73624;BME280;61921;53.226;-1.296;2023-04-03T01:24:40;102119.94;;;2.36;86.23
73624;BME280;61921;53.226;-1.296;2023-04-03T01:27:06;102115.95;;;2.56;86.46
73624;BME280;61921;53.226;-1.296;2023-04-03T01:29:31;102112.15;;;2.38;87.19
73624;BME280;61921;53.226;-1.296;2023-04-03T01:31:57;102106.70;;;2.62;85.94
73624;BME280;61921;53.226;-1.296;2023-04-03T01:34:22;102109.57;;;2.53;85.18
73624;BME280;61921;53.226;-1.296;2023-04-03T01:36:47;102112.73;;;2.12;88.00
73624;BME280;61921;53.226;-1.296;2023-04-03T01:39:12;102113.35;;;2.18;88.87
73624;BME280;61921;53.226;-1.296;2023-04-03T01:41:37;102110.02;;;2.36;88.04
73624;BME280;61921;53.226;-1.296;2023-04-03T01:44:03;102104.17;;;2.50;86.90
73624;BME280;61921;53.226;-1.296;2023-04-03T01:46:31;102104.06;;;2.19;88.59
73624;BME280;61921;53.226;-1.296;2023-04-03T01:48:54;102104.42;;;1.90;90.70
73624;BME280;61921;53.226;-1.296;2023-04-03T01:51:19;102100.62;;;1.59;92.26
73624;BME280;61921;53.226;-1.296;2023-04-03T01:53:45;102097.76;;;1.95;91.48
73624;BME280;61921;53.226;-1.296;2023-04-03T01:56:11;102098.62;;;2.03;90.10
73624;BME280;61921;53.226;-1.296;2023-04-03T01:58:36;102103.72;;;1.98;89.52
73624;BME280;61921;53.226;-1.296;2023-04-03T02:01:02;102101.95;;;2.06;89.74
73624;BME280;61921;53.226;-1.296;2023-04-03T02:03:28;102101.75;;;2.23;88.94
73624;BME280;61921;53.226;-1.296;2023-04-03T02:05:53;102100.94;;;2.16;88.11
73624;BME280;61921;53.226;-1.296;2023-04-03T02:08:19;102102.35;;;2.25;87.60
73624;BME280;61921;53.226;-1.296;2023-04-03T02:10:46;102103.68;;;2.04;88.00
73624;BME280;61921;53.226;-1.296;2023-04-03T02:13:10;102102.85;;;1.98;88.16
73624;BME280;61921;53.226;-1.296;2023-04-03T02:15:37;102102.42;;;2.02;87.61
73624;BME280;61921;53.226;-1.296;2023-04-03T02:18:01;102102.73;;;1.99;87.29
73624;BME280;61921;53.226;-1.296;2023-04-03T02:20:26;102103.11;;;2.01;87.01
73624;BME280;61921;53.226;-1.296;2023-04-03T02:22:52;102103.90;;;2.02;86.58
73624;BME280;61921;53.226;-1.296;2023-04-03T02:25:17;102103.44;;;2.00;86.49
73624;BME280;61921;53.226;-1.296;2023-04-03T02:27:43;102097.41;;;2.02;86.40
73624;BME280;61921;53.226;-1.296;2023-04-03T02:30:09;102094.07;;;2.03;86.18
73624;BME280;61921;53.226;-1.296;2023-04-03T02:32:34;102092.36;;;1.99;85.99
73624;BME280;61921;53.226;-1.296;2023-04-03T02:35:00;102089.83;;;1.98;85.99
73624;BME280;61921;53.226;-1.296;2023-04-03T02:37:25;102091.49;;;1.93;86.34
73624;BME280;61921;53.226;-1.296;2023-04-03T02:39:51;102089.16;;;1.92;86.46
73624;BME280;61921;53.226;-1.296;2023-04-03T02:42:16;102088.24;;;1.95;86.41
73624;BME280;61921;53.226;-1.296;2023-04-03T02:44:42;102088.63;;;1.90;86.14
73624;BME280;61921;53.226;-1.296;2023-04-03T02:47:07;102090.12;;;1.96;86.03
73624;BME280;61921;53.226;-1.296;2023-04-03T02:49:33;102092.57;;;1.92;85.49
73624;BME280;61921;53.226;-1.296;2023-04-03T02:51:58;102097.27;;;1.95;85.61
73624;BME280;61921;53.226;-1.296;2023-04-03T02:54:24;102096.61;;;1.93;85.51
73624;BME280;61921;53.226;-1.296;2023-04-03T02:56:50;102095.04;;;1.91;85.74
73624;BME280;61921;53.226;-1.296;2023-04-03T02:59:16;102092.70;;;1.94;85.51
73624;BME280;61921;53.226;-1.296;2023-04-03T03:01:41;102094.57;;;1.90;85.22
73624;BME280;61921;53.226;-1.296;2023-04-03T03:04:07;102096.99;;;1.83;85.35
73624;BME280;61921;53.226;-1.296;2023-04-03T03:06:33;102094.20;;;1.77;86.35
73624;BME280;61921;53.226;-1.296;2023-04-03T03:08:58;102095.79;;;1.73;86.04
73624;BME280;61921;53.226;-1.296;2023-04-03T03:11:25;102094.97;;;1.76;86.44
73624;BME280;61921;53.226;-1.296;2023-04-03T03:13:49;102097.62;;;1.76;86.12
73624;BME280;61921;53.226;-1.296;2023-04-03T03:16:14;102096.88;;;1.67;86.84
73624;BME280;61921;53.226;-1.296;2023-04-03T03:18:41;102095.00;;;1.62;87.39
73624;BME280;61921;53.226;-1.296;2023-04-03T03:21:06;102095.45;;;1.71;87.00
73624;BME280;61921;53.226;-1.296;2023-04-03T03:23:32;102095.40;;;1.77;86.42
73624;BME280;61921;53.226;-1.296;2023-04-03T03:25:58;102090.28;;;1.73;86.00
73624;BME280;61921;53.226;-1.296;2023-04-03T03:28:23;102089.23;;;1.68;85.96
73624;BME280;61921;53.226;-1.296;2023-04-03T03:30:48;102088.73;;;1.69;86.31
73624;BME280;61921;53.226;-1.296;2023-04-03T03:33:14;102089.70;;;1.75;86.55
73624;BME280;61921;53.226;-1.296;2023-04-03T03:35:39;102084.78;;;1.58;87.45
73624;BME280;61921;53.226;-1.296;2023-04-03T03:38:04;102085.16;;;1.67;87.48
73624;BME280;61921;53.226;-1.296;2023-04-03T03:40:31;102082.25;;;1.44;88.53
73624;BME280;61921;53.226;-1.296;2023-04-03T03:42:55;102077.84;;;1.34;88.56
73624;BME280;61921;53.226;-1.296;2023-04-03T03:45:20;102076.97;;;1.35;88.98
73624;BME280;61921;53.226;-1.296;2023-04-03T03:47:46;102077.28;;;1.25;90.81
73624;BME280;61921;53.226;-1.296;2023-04-03T03:50:11;102078.61;;;1.23;90.54
73624;BME280;61921;53.226;-1.296;2023-04-03T03:52:37;102079.09;;;1.11;91.20
73624;BME280;61921;53.226;-1.296;2023-04-03T03:55:04;102075.32;;;1.01;91.66
73624;BME280;61921;53.226;-1.296;2023-04-03T03:57:29;102076.59;;;1.27;90.54
73624;BME280;61921;53.226;-1.296;2023-04-03T03:59:54;102073.73;;;1.27;89.13
73624;BME280;61921;53.226;-1.296;2023-04-03T04:02:19;102077.91;;;1.30;88.82
73624;BME280;61921;53.226;-1.296;2023-04-03T04:04:45;102077.29;;;1.23;89.47
73624;BME280;61921;53.226;-1.296;2023-04-03T04:07:11;102080.90;;;1.33;88.77
73624;BME280;61921;53.226;-1.296;2023-04-03T04:09:36;102082.71;;;1.25;88.54
73624;BME280;61921;53.226;-1.296;2023-04-03T04:12:02;102081.99;;;1.27;88.35
73624;BME280;61921;53.226;-1.296;2023-04-03T04:14:28;102083.31;;;1.26;88.54
73624;BME280;61921;53.226;-1.296;2023-04-03T04:16:54;102082.17;;;1.26;87.98
73624;BME280;61921;53.226;-1.296;2023-04-03T04:19:20;102078.42;;;1.03;88.78
73624;BME280;61921;53.226;-1.296;2023-04-03T04:21:45;102077.42;;;1.19;89.05
73624;BME280;61921;53.226;-1.296;2023-04-03T04:24:11;102073.89;;;1.18;88.81
73624;BME280;61921;53.226;-1.296;2023-04-03T04:26:36;102074.41;;;1.24;88.47
73624;BME280;61921;53.226;-1.296;2023-04-03T04:29:01;102078.45;;;1.25;88.20
73624;BME280;61921;53.226;-1.296;2023-04-03T04:31:27;102081.15;;;1.23;88.23
73624;BME280;61921;53.226;-1.296;2023-04-03T04:33:53;102079.76;;;1.28;88.43
73624;BME280;61921;53.226;-1.296;2023-04-03T04:36:18;102076.97;;;1.11;89.36
73624;BME280;61921;53.226;-1.296;2023-04-03T04:38:44;102077.32;;;1.14;90.25
73624;BME280;61921;53.226;-1.296;2023-04-03T04:41:08;102075.96;;;1.22;89.77
73624;BME280;61921;53.226;-1.296;2023-04-03T04:43:34;102073.76;;;1.39;89.44
73624;BME280;61921;53.226;-1.296;2023-04-03T04:46:02;102073.59;;;1.45;88.45
73624;BME280;61921;53.226;-1.296;2023-04-03T04:48:25;102066.11;;;1.17;89.03
73624;BME280;61921;53.226;-1.296;2023-04-03T04:50:50;102066.00;;;1.43;88.54
73624;BME280;61921;53.226;-1.296;2023-04-03T04:53:15;102068.16;;;1.48;87.48
73624;BME280;61921;53.226;-1.296;2023-04-03T04:55:41;102067.56;;;1.43;87.66
73624;BME280;61921;53.226;-1.296;2023-04-03T04:58:06;102066.43;;;1.43;87.72
73624;BME280;61921;53.226;-1.296;2023-04-03T05:00:33;102064.81;;;1.31;88.84
73624;BME280;61921;53.226;-1.296;2023-04-03T05:02:57;102066.64;;;1.43;87.65
73624;BME280;61921;53.226;-1.296;2023-04-03T05:05:23;102065.66;;;1.37;87.54
73624;BME280;61921;53.226;-1.296;2023-04-03T05:07:48;102067.32;;;1.35;87.33
73624;BME280;61921;53.226;-1.296;2023-04-03T05:10:13;102067.81;;;1.41;87.23
73624;BME280;61921;53.226;-1.296;2023-04-03T05:12:39;102065.49;;;1.30;87.42
73624;BME280;61921;53.226;-1.296;2023-04-03T05:15:06;102069.45;;;1.38;87.40
73624;BME280;61921;53.226;-1.296;2023-04-03T05:17:30;102070.24;;;1.38;87.24
73624;BME280;61921;53.226;-1.296;2023-04-03T05:19:55;102070.95;;;1.39;87.64
73624;BME280;61921;53.226;-1.296;2023-04-03T05:22:21;102074.54;;;1.40;87.02
73624;BME280;61921;53.226;-1.296;2023-04-03T05:24:48;102076.95;;;1.42;86.79
73624;BME280;61921;53.226;-1.296;2023-04-03T05:27:13;102076.54;;;1.46;86.66
73624;BME280;61921;53.226;-1.296;2023-04-03T05:29:38;102080.37;;;1.51;86.39
73624;BME280;61921;53.226;-1.296;2023-04-03T05:32:04;102078.61;;;1.37;86.50
73624;BME280;61921;53.226;-1.296;2023-04-03T05:34:30;102086.19;;;1.40;86.83
73624;BME280;61921;53.226;-1.296;2023-04-03T05:36:55;102085.98;;;1.33;86.81
73624;BME280;61921;53.226;-1.296;2023-04-03T05:39:20;102086.40;;;1.39;86.66
73624;BME280;61921;53.226;-1.296;2023-04-03T05:41:46;102083.50;;;1.18;87.75
73624;BME280;61921;53.226;-1.296;2023-04-03T05:44:11;102088.40;;;1.34;87.58
73624;BME280;61921;53.226;-1.296;2023-04-03T05:46:37;102091.58;;;1.38;87.37
73624;BME280;61921;53.226;-1.296;2023-04-03T05:49:02;102092.82;;;1.44;87.21
73624;BME280;61921;53.226;-1.296;2023-04-03T05:51:30;102093.63;;;1.44;87.32
73624;BME280;61921;53.226;-1.296;2023-04-03T05:53:59;102098.14;;;1.54;87.23
73624;BME280;61921;53.226;-1.296;2023-04-03T05:56:18;102096.05;;;1.61;87.49
73624;BME280;61921;53.226;-1.296;2023-04-03T05:58:43;102097.35;;;1.76;87.83
73624;BME280;61921;53.226;-1.296;2023-04-03T06:01:09;102099.93;;;1.90;87.99
73624;BME280;61921;53.226;-1.296;2023-04-03T06:03:35;102100.02;;;2.06;87.79
73624;BME280;61921;53.226;-1.296;2023-04-03T06:06:02;102099.45;;;2.14;87.24
73624;BME280;61921;53.226;-1.296;2023-04-03T06:08:25;102101.46;;;2.25;87.06
73624;BME280;61921;53.226;-1.296;2023-04-03T06:10:51;102101.39;;;2.39;86.69
73624;BME280;61921;53.226;-1.296;2023-04-03T06:13:17;102099.20;;;2.40;86.35
73624;BME280;61921;53.226;-1.296;2023-04-03T06:15:42;102101.19;;;2.48;85.94
73624;BME280;61921;53.226;-1.296;2023-04-03T06:18:08;102099.26;;;2.56;85.81
73624;BME280;61921;53.226;-1.296;2023-04-03T06:20:33;102098.99;;;2.60;85.43
73624;BME280;61921;53.226;-1.296;2023-04-03T06:22:58;102103.58;;;2.68;85.29
73624;BME280;61921;53.226;-1.296;2023-04-03T06:25:25;102103.94;;;2.62;85.14
73624;BME280;61921;53.226;-1.296;2023-04-03T06:27:49;102110.62;;;2.77;85.21
73624;BME280;61921;53.226;-1.296;2023-04-03T06:30:15;102105.08;;;2.92;84.61
73624;BME280;61921;53.226;-1.296;2023-04-03T06:32:40;102103.45;;;2.90;84.35
73624;BME280;61921;53.226;-1.296;2023-04-03T06:35:07;102100.89;;;2.93;84.48
73624;BME280;61921;53.226;-1.296;2023-04-03T06:37:32;102102.55;;;2.95;84.29
73624;BME280;61921;53.226;-1.296;2023-04-03T06:39:57;102101.43;;;3.08;84.03
73624;BME280;61921;53.226;-1.296;2023-04-03T06:42:23;102105.86;;;2.89;84.14
73624;BME280;61921;53.226;-1.296;2023-04-03T06:44:48;102102.63;;;2.90;84.30
73624;BME280;61921;53.226;-1.296;2023-04-03T06:47:15;102103.97;;;3.01;83.83
73624;BME280;61921;53.226;-1.296;2023-04-03T06:49:39;102104.96;;;2.88;83.88
73624;BME280;61921;53.226;-1.296;2023-04-03T06:52:05;102104.77;;;3.00;83.78
73624;BME280;61921;53.226;-1.296;2023-04-03T06:54:31;102103.84;;;3.09;83.31
73624;BME280;61921;53.226;-1.296;2023-04-03T06:56:57;102103.87;;;3.12;83.56
73624;BME280;61921;53.226;-1.296;2023-04-03T06:59:22;102101.91;;;3.26;83.37
73624;BME280;61921;53.226;-1.296;2023-04-03T07:01:48;102102.50;;;3.39;83.37
73624;BME280;61921;53.226;-1.296;2023-04-03T07:04:14;102103.06;;;3.50;82.99
73624;BME280;61921;53.226;-1.296;2023-04-03T07:06:39;102100.65;;;3.18;83.94
73624;BME280;61921;53.226;-1.296;2023-04-03T07:09:04;102101.69;;;3.44;83.57
73624;BME280;61921;53.226;-1.296;2023-04-03T07:11:30;102102.46;;;3.44;83.45
73624;BME280;61921;53.226;-1.296;2023-04-03T07:13:55;102101.66;;;3.15;84.21
73624;BME280;61921;53.226;-1.296;2023-04-03T07:16:21;102097.66;;;3.41;83.86
73624;BME280;61921;53.226;-1.296;2023-04-03T07:18:46;102103.76;;;3.48;83.37
73624;BME280;61921;53.226;-1.296;2023-04-03T07:21:12;102097.37;;;3.45;84.54
73624;BME280;61921;53.226;-1.296;2023-04-03T07:23:37;102094.98;;;3.07;85.03
73624;BME280;61921;53.226;-1.296;2023-04-03T07:26:03;102100.83;;;3.01;85.60
73624;BME280;61921;53.226;-1.296;2023-04-03T07:28:28;102096.78;;;2.64;87.99
73624;BME280;61921;53.226;-1.296;2023-04-03T07:30:59;102100.41;;;2.71;88.42
73624;BME280;61921;53.226;-1.296;2023-04-03T07:33:21;102098.29;;;2.66;89.38
73624;BME280;61921;53.226;-1.296;2023-04-03T07:35:45;102097.61;;;2.68;90.06
73624;BME280;61921;53.226;-1.296;2023-04-03T07:38:09;102099.76;;;2.48;91.46
73624;BME280;61921;53.226;-1.296;2023-04-03T07:40:35;102100.25;;;2.64;91.93
73624;BME280;61921;53.226;-1.296;2023-04-03T07:43:00;102099.45;;;2.85;91.38
73624;BME280;61921;53.226;-1.296;2023-04-03T07:45:26;102103.91;;;2.61;91.79
73624;BME280;61921;53.226;-1.296;2023-04-03T07:47:51;102104.09;;;2.97;90.96
73624;BME280;61921;53.226;-1.296;2023-04-03T07:50:16;102103.89;;;3.11;90.77
73624;BME280;61921;53.226;-1.296;2023-04-03T07:52:43;102105.60;;;2.99;90.38
73624;BME280;61921;53.226;-1.296;2023-04-03T07:55:08;102104.67;;;3.10;90.20
73624;BME280;61921;53.226;-1.296;2023-04-03T07:57:34;102103.03;;;3.25;90.19
73624;BME280;61921;53.226;-1.296;2023-04-03T07:59:59;102101.11;;;3.32;90.66
73624;BME280;61921;53.226;-1.296;2023-04-03T08:02:24;102100.45;;;3.61;89.51
73624;BME280;61921;53.226;-1.296;2023-04-03T08:04:50;102099.72;;;3.66;89.55
73624;BME280;61921;53.226;-1.296;2023-04-03T08:07:15;102099.41;;;3.52;90.68
73624;BME280;61921;53.226;-1.296;2023-04-03T08:09:41;102098.34;;;3.61;91.17
73624;BME280;61921;53.226;-1.296;2023-04-03T08:12:06;102095.67;;;3.56;91.00
73624;BME280;61921;53.226;-1.296;2023-04-03T08:14:32;102095.54;;;3.81;92.35
73624;BME280;61921;53.226;-1.296;2023-04-03T08:16:57;102092.02;;;4.03;91.18
73624;BME280;61921;53.226;-1.296;2023-04-03T08:19:22;102090.96;;;4.37;89.73
73624;BME280;61921;53.226;-1.296;2023-04-03T08:21:48;102091.47;;;4.53;88.97
73624;BME280;61921;53.226;-1.296;2023-04-03T08:24:12;102091.35;;;4.80;87.67
73624;BME280;61921;53.226;-1.296;2023-04-03T08:26:38;102091.98;;;5.08;87.22
73624;BME280;61921;53.226;-1.296;2023-04-03T08:29:03;102092.80;;;5.42;86.54
73624;BME280;61921;53.226;-1.296;2023-04-03T08:31:29;102089.46;;;6.04;83.80
73624;BME280;61921;53.226;-1.296;2023-04-03T08:33:54;102087.71;;;6.71;81.82
73624;BME280;61921;53.226;-1.296;2023-04-03T08:36:21;102087.96;;;7.38;78.04
73624;BME280;61921;53.226;-1.296;2023-04-03T08:38:44;102085.16;;;7.76;75.51
73624;BME280;61921;53.226;-1.296;2023-04-03T08:41:15;102080.96;;;8.04;74.24
73624;BME280;61921;53.226;-1.296;2023-04-03T08:43:40;102081.83;;;8.34;73.10
73624;BME280;61921;53.226;-1.296;2023-04-03T08:46:03;102084.81;;;8.00;72.83
73624;BME280;61921;53.226;-1.296;2023-04-03T08:48:29;102084.16;;;8.01;73.74
73624;BME280;61921;53.226;-1.296;2023-04-03T08:50:54;102082.27;;;8.44;71.41
73624;BME280;61921;53.226;-1.296;2023-04-03T08:53:20;102084.00;;;8.57;70.34
73624;BME280;61921;53.226;-1.296;2023-04-03T08:55:44;102082.07;;;8.37;72.25
73624;BME280;61921;53.226;-1.296;2023-04-03T08:58:12;102081.58;;;8.90;69.96
73624;BME280;61921;53.226;-1.296;2023-04-03T09:00:40;102085.59;;;8.93;68.49
73624;BME280;61921;53.226;-1.296;2023-04-03T09:03:00;102084.67;;;8.60;70.80
73624;BME280;61921;53.226;-1.296;2023-04-03T09:05:35;102086.46;;;9.41;68.99
73624;BME280;61921;53.226;-1.296;2023-04-03T09:07:56;102087.49;;;9.39;66.62
73624;BME280;61921;53.226;-1.296;2023-04-03T09:10:23;102082.62;;;9.97;64.24
73624;BME280;61921;53.226;-1.296;2023-04-03T09:12:46;102090.37;;;10.40;62.46
73624;BME280;61921;53.226;-1.296;2023-04-03T09:15:16;102083.41;;;10.57;60.40
73624;BME280;61921;53.226;-1.296;2023-04-03T09:17:41;102080.58;;;10.15;60.81
73624;BME280;61921;53.226;-1.296;2023-04-03T09:20:06;102080.15;;;9.91;61.34
73624;BME280;61921;53.226;-1.296;2023-04-03T09:22:24;102080.53;;;9.94;62.86
73624;BME280;61921;53.226;-1.296;2023-04-03T09:24:54;102079.37;;;9.15;63.48
73624;BME280;61921;53.226;-1.296;2023-04-03T09:27:14;102080.47;;;9.70;63.07
73624;BME280;61921;53.226;-1.296;2023-04-03T09:29:41;102079.33;;;9.89;60.82
73624;BME280;61921;53.226;-1.296;2023-04-03T09:32:18;102074.11;;;10.01;61.15
73624;BME280;61921;53.226;-1.296;2023-04-03T09:34:32;102073.02;;;9.94;61.50
73624;BME280;61921;53.226;-1.296;2023-04-03T09:36:57;102070.87;;;9.72;60.69
73624;BME280;61921;53.226;-1.296;2023-04-03T09:39:23;102071.43;;;9.90;61.98
73624;BME280;61921;53.226;-1.296;2023-04-03T09:41:57;102066.81;;;10.07;61.19
73624;BME280;61921;53.226;-1.296;2023-04-03T09:44:21;102065.38;;;10.03;60.96
73624;BME280;61921;53.226;-1.296;2023-04-03T09:46:38;102075.05;;;9.86;61.09
73624;BME280;61921;53.226;-1.296;2023-04-03T09:49:05;102071.20;;;9.98;60.70
73624;BME280;61921;53.226;-1.296;2023-04-03T09:51:30;102069.55;;;10.10;60.56
73624;BME280;61921;53.226;-1.296;2023-04-03T09:53:55;102066.15;;;10.01;60.70
73624;BME280;61921;53.226;-1.296;2023-04-03T09:56:22;102062.79;;;10.46;59.84
73624;BME280;61921;53.226;-1.296;2023-04-03T09:58:46;102057.98;;;10.56;59.30
73624;BME280;61921;53.226;-1.296;2023-04-03T10:01:23;102057.50;;;10.51;59.34
73624;BME280;61921;53.226;-1.296;2023-04-03T10:03:36;102059.12;;;10.08;59.76
73624;BME280;61921;53.226;-1.296;2023-04-03T10:06:03;102057.98;;;9.97;60.77
73624;BME280;61921;53.226;-1.296;2023-04-03T10:08:30;102064.18;;;9.66;61.81
73624;BME280;61921;53.226;-1.296;2023-04-03T10:11:06;102065.15;;;10.17;61.86
73624;BME280;61921;53.226;-1.296;2023-04-03T10:13:19;102061.07;;;10.30;59.97
73624;BME280;61921;53.226;-1.296;2023-04-03T10:15:45;102061.83;;;10.55;59.66
73624;BME280;61921;53.226;-1.296;2023-04-03T10:18:21;102061.60;;;10.59;59.19
73624;BME280;61921;53.226;-1.296;2023-04-03T10:20:36;102060.65;;;10.43;60.28
73624;BME280;61921;53.226;-1.296;2023-04-03T10:23:12;102051.43;;;10.14;60.03
73624;BME280;61921;53.226;-1.296;2023-04-03T10:25:30;102052.20;;;9.49;62.58
73624;BME280;61921;53.226;-1.296;2023-04-03T10:27:55;102046.19;;;10.29;61.88
73624;BME280;61921;53.226;-1.296;2023-04-03T10:30:23;102045.48;;;9.80;61.34
73624;BME280;61921;53.226;-1.296;2023-04-03T10:32:50;102042.51;;;9.97;61.59
73624;BME280;61921;53.226;-1.296;2023-04-03T10:35:15;102044.37;;;10.32;60.93
73624;BME280;61921;53.226;-1.296;2023-04-03T10:37:42;102048.62;;;10.77;59.80
73624;BME280;61921;53.226;-1.296;2023-04-03T10:40:01;102045.28;;;11.46;59.23
73624;BME280;61921;53.226;-1.296;2023-04-03T10:42:27;102039.70;;;11.50;58.30
73624;BME280;61921;53.226;-1.296;2023-04-03T10:45:03;102033.35;;;11.87;57.96
73624;BME280;61921;53.226;-1.296;2023-04-03T10:47:18;102034.29;;;12.10;55.43
73624;BME280;61921;53.226;-1.296;2023-04-03T10:49:47;102033.39;;;12.17;54.32
73624;BME280;61921;53.226;-1.296;2023-04-03T10:52:11;102030.29;;;12.13;54.59
73624;BME280;61921;53.226;-1.296;2023-04-03T10:54:34;102030.21;;;12.15;55.84
73624;BME280;61921;53.226;-1.296;2023-04-03T10:56:58;102031.30;;;12.22;54.31
73624;BME280;61921;53.226;-1.296;2023-04-03T10:59:25;102030.83;;;11.72;56.08
73624;BME280;61921;53.226;-1.296;2023-04-03T11:01:49;102027.49;;;11.89;55.39
73624;BME280;61921;53.226;-1.296;2023-04-03T11:04:11;102028.07;;;11.98;54.31
73624;BME280;61921;53.226;-1.296;2023-04-03T11:06:41;102025.38;;;12.45;53.98
73624;BME280;61921;53.226;-1.296;2023-04-03T11:09:07;102021.29;;;12.37;53.12
73624;BME280;61921;53.226;-1.296;2023-04-03T11:11:31;102019.91;;;12.61;52.21
73624;BME280;61921;53.226;-1.296;2023-04-03T11:13:56;102018.80;;;12.91;52.52
73624;BME280;61921;53.226;-1.296;2023-04-03T11:16:23;102021.22;;;13.08;50.63
73624;BME280;61921;53.226;-1.296;2023-04-03T11:18:48;102012.11;;;12.72;51.46
73624;BME280;61921;53.226;-1.296;2023-04-03T11:21:14;102014.60;;;12.66;52.69
73624;BME280;61921;53.226;-1.296;2023-04-03T11:23:36;102011.64;;;12.70;53.11
73624;BME280;61921;53.226;-1.296;2023-04-03T11:26:07;102008.44;;;12.95;52.26
73624;BME280;61921;53.226;-1.296;2023-04-03T11:28:25;102002.17;;;12.78;51.26
73624;BME280;61921;53.226;-1.296;2023-04-03T11:30:57;101996.06;;;12.01;53.39
73624;BME280;61921;53.226;-1.296;2023-04-03T11:33:24;101996.09;;;12.48;53.48
73624;BME280;61921;53.226;-1.296;2023-04-03T11:35:43;101987.11;;;12.83;52.81
73624;BME280;61921;53.226;-1.296;2023-04-03T11:38:14;101985.76;;;12.64;53.01
73624;BME280;61921;53.226;-1.296;2023-04-03T11:40:35;101986.10;;;12.41;53.20
73624;BME280;61921;53.226;-1.296;2023-04-03T11:43:05;101987.34;;;12.60;52.82
73624;BME280;61921;53.226;-1.296;2023-04-03T11:45:34;101992.02;;;12.90;52.05
73624;BME280;61921;53.226;-1.296;2023-04-03T11:47:51;101986.74;;;12.69;51.93
73624;BME280;61921;53.226;-1.296;2023-04-03T11:52:58;101986.57;;;12.93;51.11
73624;BME280;61921;53.226;-1.296;2023-04-03T11:57:46;101980.54;;;12.95;52.36
73624;BME280;61921;53.226;-1.296;2023-04-03T11:59:55;101975.75;;;13.28;50.23
73624;BME280;61921;53.226;-1.296;2023-04-03T12:02:35;101970.53;;;13.15;51.71
73624;BME280;61921;53.226;-1.296;2023-04-03T12:07:15;101969.45;;;12.80;53.60
73624;BME280;61921;53.226;-1.296;2023-04-03T12:14:29;101965.36;;;13.36;50.94
73624;BME280;61921;53.226;-1.296;2023-04-03T12:16:54;101958.55;;;13.60;52.15
73624;BME280;61921;53.226;-1.296;2023-04-03T12:19:29;101957.25;;;13.52;52.22
73624;BME280;61921;53.226;-1.296;2023-04-03T12:24:24;101955.46;;;13.47;52.17
73624;BME280;61921;53.226;-1.296;2023-04-03T12:26:40;101947.00;;;13.35;51.20
73624;BME280;61921;53.226;-1.296;2023-04-03T12:29:02;101950.71;;;12.84;51.85
73624;BME280;61921;53.226;-1.296;2023-04-03T12:31:35;101947.41;;;13.47;50.11
73624;BME280;61921;53.226;-1.296;2023-04-03T12:34:00;101939.15;;;13.68;49.09
73624;BME280;61921;53.226;-1.296;2023-04-03T12:36:24;101937.26;;;13.81;49.58
73624;BME280;61921;53.226;-1.296;2023-04-03T12:38:54;101934.40;;;13.89;49.75
73624;BME280;61921;53.226;-1.296;2023-04-03T12:41:19;101931.64;;;13.98;49.28
73624;BME280;61921;53.226;-1.296;2023-04-03T12:43:42;101930.63;;;14.24;48.23
73624;BME280;61921;53.226;-1.296;2023-04-03T12:46:02;101921.85;;;14.50;48.71
73624;BME280;61921;53.226;-1.296;2023-04-03T12:48:25;101922.49;;;14.76;47.10
73624;BME280;61921;53.226;-1.296;2023-04-03T12:50:49;101918.57;;;14.00;47.82
73624;BME280;61921;53.226;-1.296;2023-04-03T12:53:18;101916.97;;;14.11;47.81
73624;BME280;61921;53.226;-1.296;2023-04-03T12:55:39;101914.20;;;14.03;46.84
73624;BME280;61921;53.226;-1.296;2023-04-03T12:58:14;101914.05;;;14.16;47.09
73624;BME280;61921;53.226;-1.296;2023-04-03T13:00:33;101906.68;;;14.14;48.00
73624;BME280;61921;53.226;-1.296;2023-04-03T13:02:55;101904.28;;;14.67;47.23
73624;BME280;61921;53.226;-1.296;2023-04-03T13:05:23;101900.10;;;14.71;45.97
73624;BME280;61921;53.226;-1.296;2023-04-03T13:07:49;101893.75;;;14.70;46.85
73624;BME280;61921;53.226;-1.296;2023-04-03T13:10:15;101897.85;;;14.60;47.43
73624;BME280;61921;53.226;-1.296;2023-04-03T13:12:46;101892.94;;;14.96;47.47
73624;BME280;61921;53.226;-1.296;2023-04-03T13:17:27;101886.73;;;15.25;46.51
73624;BME280;61921;53.226;-1.296;2023-04-03T13:19:52;101882.57;;;15.30;46.66
73624;BME280;61921;53.226;-1.296;2023-04-03T13:22:27;101882.79;;;15.17;46.02
73624;BME280;61921;53.226;-1.296;2023-04-03T13:24:44;101876.29;;;14.82;47.09
73624;BME280;61921;53.226;-1.296;2023-04-03T13:27:12;101875.05;;;14.99;45.97
73624;BME280;61921;53.226;-1.296;2023-04-03T13:29:36;101873.42;;;15.50;46.13